| time (UTC) | temp F | wind direction | speed MPH | gust MPH | rain 1hr in | rain 24hr in | rain mn in | humidity % | barometer mb |
| 20260906063203 | 57 | 0 | 0.0 | 0.0 | 0.00 | 0.00 | 0.00 | 8 | 1016.3 |
| 20260906062702 | 57 | 0 | 0.0 | 0.0 | 0.00 | 0.00 | 0.00 | 8 | 1016.3 |
| 20260906062202 | 57 | 331 | 0.0 | 1.0 | 0.00 | 0.00 | 0.00 | 8 | 1015.9 |
| 20260906061702 | 57 | 0 | 0.0 | 0.0 | 0.00 | 0.00 | 0.00 | 8 | 1016.1 |
| 20260906061201 | 57 | 291 | 2.0 | 2.0 | 0.00 | 0.00 | 0.00 | 8 | 1016.1 |
| 20260906060701 | 56 | 5 | 0.0 | 1.0 | 0.00 | 0.00 | 0.00 | 8 | 1016.4 |
| 20260906060200 | 56 | 355 | 0.0 | 1.0 | 0.00 | 0.00 | 0.00 | 8 | 1016.5 |
| 20260906055700 | 56 | 353 | 0.0 | 1.0 | 0.00 | 0.00 | 0.00 | 8 | 1015.9 |
| 20260906055200 | 56 | 176 | 2.0 | 3.0 | 0.00 | 0.00 | 0.00 | 8 | 1015.9 |
| 20260906054700 | 56 | 0 | 0.0 | 0.0 | 0.00 | 0.00 | 0.00 | 8 | 1016.0 |
| 20260906054159 | 56 | 341 | 1.0 | 3.0 | 0.00 | 0.00 | 0.00 | 8 | 1015.8 |
| 20260906053659 | 56 | 351 | 0.0 | 2.0 | 0.00 | 0.00 | 0.00 | 8 | 1015.9 |
| 20260906053159 | 56 | 74 | 0.0 | 1.0 | 0.00 | 0.00 | 0.00 | 8 | 1015.9 |
| 20260906052658 | 56 | 241 | 0.0 | 2.0 | 0.00 | 0.00 | 0.00 | 8 | 1015.8 |
| 20260906052158 | 56 | 224 | 3.0 | 5.0 | 0.00 | 0.00 | 0.00 | 8 | 1015.7 |
| 20260906051658 | 56 | 13 | 0.0 | 2.0 | 0.00 | 0.00 | 0.00 | 8 | 1015.7 |
| 20260906051157 | 56 | 232 | 0.0 | 1.0 | 0.00 | 0.00 | 0.00 | 8 | 1015.7 |
| 20260906050657 | 56 | 307 | 0.0 | 1.0 | 0.00 | 0.00 | 0.00 | 8 | 1015.7 |
| 20260906050156 | 56 | 340 | 0.0 | 1.0 | 0.00 | 0.00 | 0.00 | 8 | 1015.6 |
| 20260906045656 | 56 | 279 | 1.0 | 2.0 | 0.00 | 0.00 | 0.00 | 8 | 1015.7 |
| 20260906045156 | 56 | 1 | 0.0 | 1.0 | 0.00 | 0.00 | 0.00 | 8 | 1015.7 |
| 20260906044656 | 56 | 286 | 0.0 | 1.0 | 0.00 | 0.00 | 0.00 | 8 | 1015.7 |
| 20260906044155 | 56 | 354 | 0.0 | 1.0 | 0.00 | 0.00 | 0.00 | 8 | 1015.7 |
| 20260906043655 | 56 | 0 | 0.0 | 0.0 | 0.00 | 0.00 | 0.00 | 8 | 1015.5 |
| 20260906043155 | 56 | 164 | 1.0 | 2.0 | 0.00 | 0.00 | 0.00 | 8 | 1015.6 |
| 20260906042654 | 56 | 0 | 0.0 | 1.0 | 0.00 | 0.00 | 0.00 | 8 | 1015.6 |
| 20260906042154 | 56 | 352 | 0.0 | 1.0 | 0.00 | 0.00 | 0.00 | 8 | 1015.4 |
| 20260906041654 | 56 | 328 | 0.0 | 1.0 | 0.00 | 0.00 | 0.00 | 8 | 1015.5 |
| 20260906041153 | 56 | 3 | 0.0 | 1.0 | 0.00 | 0.00 | 0.00 | 8 | 1015.5 |
| 20260906040653 | 56 | 0 | 0.0 | 0.0 | 0.00 | 0.00 | 0.00 | 8 | 1015.3 |
| 20260906040153 | 56 | 16 | 0.0 | 1.0 | 0.00 | 0.00 | 0.00 | 8 | 1015.5 |
| 20260906035652 | 56 | 254 | 1.0 | 2.0 | 0.00 | 0.00 | 0.00 | 8 | 1015.2 |
| 20260906035152 | 57 | 0 | 0.0 | 0.0 | 0.00 | 0.00 | 0.00 | 8 | 1015.4 |
| 20260906034652 | 57 | 0 | 0.0 | 0.0 | 0.00 | 0.00 | 0.00 | 8 | 1015.2 |
| 20260906034151 | 57 | 330 | 0.0 | 1.0 | 0.00 | 0.00 | 0.00 | 8 | 1015.3 |
| 20260906033651 | 57 | 358 | 0.0 | 1.0 | 0.00 | 0.00 | 0.00 | 8 | 1015.1 |
| 20260906033151 | 57 | 0 | 0.0 | 0.0 | 0.00 | 0.00 | 0.00 | 8 | 1015.3 |
| 20260906032650 | 57 | 0 | 0.0 | 0.0 | 0.00 | 0.00 | 0.00 | 8 | 1014.9 |
| 20260906032150 | 57 | 27 | 0.0 | 1.0 | 0.00 | 0.00 | 0.00 | 8 | 1014.9 |
| 20260906031650 | 57 | 340 | 1.0 | 1.0 | 0.00 | 0.00 | 0.00 | 8 | 1014.9 |
| 20260906031149 | 57 | 0 | 0.0 | 0.0 | 0.00 | 0.00 | 0.00 | 8 | 1014.8 |
| 20260906030649 | 57 | 187 | 0.0 | 2.0 | 0.00 | 0.00 | 0.00 | 8 | 1014.9 |
| 20260906030149 | 57 | 215 | 0.0 | 1.0 | 0.00 | 0.00 | 0.00 | 8 | 1015.0 |
| 20260906025648 | 57 | 295 | 0.0 | 1.0 | 0.00 | 0.00 | 0.00 | 8 | 1015.0 |
| 20260906025148 | 57 | 15 | 0.0 | 1.0 | 0.00 | 0.00 | 0.00 | 8 | 1014.7 |
| 20260906024648 | 57 | 0 | 0.0 | 0.0 | 0.00 | 0.00 | 0.00 | 8 | 1014.8 |
| 20260906024147 | 57 | 0 | 0.0 | 0.0 | 0.00 | 0.00 | 0.00 | 8 | 1014.8 |
| 20260906023647 | 57 | 354 | 0.0 | 1.0 | 0.00 | 0.00 | 0.00 | 8 | 1014.7 |
| 20260906023147 | 57 | 356 | 0.0 | 1.0 | 0.00 | 0.00 | 0.00 | 8 | 1014.8 |
| 20260906022646 | 57 | 356 | 0.0 | 1.0 | 0.00 | 0.00 | 0.00 | 8 | 1014.8 |
| 20260906022146 | 57 | 0 | 0.0 | 0.0 | 0.00 | 0.00 | 0.00 | 8 | 1014.7 |
| 20260906021646 | 57 | 0 | 0.0 | 0.0 | 0.00 | 0.00 | 0.00 | 8 | 1014.7 |
| 20260906021145 | 57 | 41 | 0.0 | 1.0 | 0.00 | 0.00 | 0.00 | 8 | 1014.6 |
| 20260906020645 | 56 | 11 | 0.0 | 1.0 | 0.00 | 0.00 | 0.00 | 8 | 1014.7 |
| 20260906020145 | 56 | 0 | 0.0 | 0.0 | 0.00 | 0.00 | 0.00 | 8 | 1014.6 |
| 20260906015644 | 56 | 0 | 0.0 | 0.0 | 0.00 | 0.00 | 0.00 | 8 | 1014.6 |
| 20260906015144 | 56 | 0 | 0.0 | 0.0 | 0.00 | 0.00 | 0.00 | 8 | 1014.7 |
| 20260906014644 | 56 | 0 | 0.0 | 0.0 | 0.00 | 0.00 | 0.00 | 8 | 1014.5 |
| 20260906014143 | 56 | 306 | 1.0 | 2.0 | 0.00 | 0.00 | 0.00 | 8 | 1014.7 |
| 20260906013643 | 56 | 0 | 0.0 | 0.0 | 0.00 | 0.00 | 0.00 | 8 | 1014.4 |
| 20260906013143 | 56 | 0 | 0.0 | 0.0 | 0.00 | 0.00 | 0.00 | 8 | 1014.7 |
| 20260906012642 | 56 | 331 | 0.0 | 1.0 | 0.00 | 0.00 | 0.00 | 8 | 1014.3 |
| 20260906012142 | 56 | 0 | 0.0 | 1.0 | 0.00 | 0.00 | 0.00 | 8 | 1014.5 |
| 20260906011642 | 56 | 293 | 1.0 | 1.0 | 0.00 | 0.00 | 0.00 | 8 | 1014.7 |
| 20260906011141 | 56 | 0 | 0.0 | 0.0 | 0.00 | 0.00 | 0.00 | 8 | 1014.6 |
| 20260906010141 | 56 | 0 | 0.0 | 0.0 | 0.00 | 0.00 | 0.00 | 8 | 1014.4 |
| 20260906005640 | 56 | 0 | 0.0 | 0.0 | 0.00 | 0.00 | 0.00 | 8 | 1014.5 |
| 20260906005140 | 56 | 215 | 1.0 | 3.0 | 0.00 | 0.00 | 0.00 | 8 | 1014.5 |
| 20260906004640 | 56 | 0 | 0.0 | 0.0 | 0.00 | 0.00 | 0.00 | 8 | 1014.6 |
| 20260906004139 | 56 | 338 | 1.0 | 2.0 | 0.00 | 0.00 | 0.00 | 8 | 1014.6 |
| 20260906003639 | 56 | 340 | 0.0 | 1.0 | 0.00 | 0.00 | 0.00 | 8 | 1014.5 |
| 20260906003139 | 56 | 356 | 0.0 | 1.0 | 0.00 | 0.00 | 0.00 | 8 | 1014.5 |
| 20260906002638 | 56 | 0 | 0.0 | 0.0 | 0.00 | 0.00 | 0.00 | 8 | 1014.6 |
| 20260906002138 | 56 | 23 | 0.0 | 1.0 | 0.00 | 0.00 | 0.00 | 8 | 1014.3 |
| 20260906001637 | 56 | 323 | 0.0 | 1.0 | 0.00 | 0.00 | 0.00 | 8 | 1014.5 |
| 20260906001137 | 56 | 1 | 0.0 | 1.0 | 0.00 | 0.00 | 0.00 | 8 | 1014.6 |
| 20260906000637 | 56 | 254 | 0.0 | 1.0 | 0.00 | 0.00 | 0.00 | 8 | 1014.5 |
| 20260906000136 | 56 | 0 | 0.0 | 0.0 | 0.00 | 0.00 | 0.00 | 8 | 1014.6 |
| 20260905235636 | 56 | 236 | 2.0 | 3.0 | 0.00 | 0.00 | 0.00 | 8 | 1014.7 |
| 20260905235136 | 56 | 359 | 0.0 | 1.0 | 0.00 | 0.00 | 0.00 | 8 | 1014.3 |
| 20260905234635 | 56 | 41 | 0.0 | 1.0 | 0.00 | 0.00 | 0.00 | 8 | 1014.5 |
| 20260905234135 | 56 | 349 | 0.0 | 1.0 | 0.00 | 0.00 | 0.00 | 8 | 1014.3 |
| 20260905233635 | 57 | 3 | 0.0 | 1.0 | 0.00 | 0.00 | 0.00 | 8 | 1014.2 |
| 20260905233134 | 57 | 11 | 0.0 | 1.0 | 0.00 | 0.00 | 0.00 | 8 | 1014.2 |
| 20260905232634 | 57 | 0 | 0.0 | 0.0 | 0.00 | 0.00 | 0.00 | 8 | 1014.2 |
| 20260905232134 | 57 | 348 | 0.0 | 1.0 | 0.00 | 0.00 | 0.00 | 8 | 1014.3 |
| 20260905231633 | 57 | 0 | 0.0 | 0.0 | 0.00 | 0.00 | 0.00 | 8 | 1014.1 |
| 20260905231133 | 56 | 1 | 0.0 | 1.0 | 0.00 | 0.00 | 0.00 | 8 | 1014.1 |
| 20260905230633 | 57 | 0 | 0.0 | 0.0 | 0.00 | 0.00 | 0.00 | 8 | 1014.1 |
| 20260905230132 | 57 | 0 | 0.0 | 1.0 | 0.00 | 0.00 | 0.00 | 8 | 1014.1 |
| 20260905225632 | 57 | 25 | 0.0 | 1.0 | 0.00 | 0.00 | 0.00 | 8 | 1014.1 |
| 20260905225132 | 57 | 14 | 0.0 | 1.0 | 0.00 | 0.00 | 0.00 | 8 | 1014.0 |
| 20260905224631 | 57 | 0 | 0.0 | 0.0 | 0.00 | 0.00 | 0.00 | 8 | 1014.0 |
| 20260905224131 | 57 | 355 | 0.0 | 1.0 | 0.00 | 0.00 | 0.00 | 8 | 1014.2 |
| 20260905223631 | 57 | 0 | 0.0 | 0.0 | 0.00 | 0.00 | 0.00 | 8 | 1013.9 |
| 20260905223130 | 57 | 0 | 0.0 | 0.0 | 0.00 | 0.00 | 0.00 | 8 | 1014.2 |
| 20260905222630 | 57 | 4 | 0.0 | 1.0 | 0.00 | 0.00 | 0.00 | 8 | 1014.0 |
| 20260905222130 | 57 | 351 | 0.0 | 1.0 | 0.00 | 0.00 | 0.00 | 8 | 1013.8 |
| 20260905221630 | 57 | 234 | 0.0 | 2.0 | 0.00 | 0.00 | 0.00 | 8 | 1014.0 |
| 20260905221129 | 57 | 0 | 0.0 | 0.0 | 0.00 | 0.00 | 0.00 | 8 | 1013.8 |
| 20260905220629 | 57 | 27 | 0.0 | 1.0 | 0.00 | 0.00 | 0.00 | 8 | 1014.1 |
| 20260905220128 | 57 | 0 | 0.0 | 0.0 | 0.00 | 0.00 | 0.00 | 8 | 1013.9 |
| 20260905215628 | 57 | 9 | 0.0 | 1.0 | 0.00 | 0.00 | 0.00 | 8 | 1013.9 |
| 20260905215128 | 57 | 0 | 0.0 | 0.0 | 0.00 | 0.00 | 0.00 | 8 | 1013.8 |
| 20260905214627 | 57 | 0 | 0.0 | 0.0 | 0.00 | 0.00 | 0.00 | 8 | 1013.8 |
| 20260905214127 | 57 | 330 | 0.0 | 1.0 | 0.00 | 0.00 | 0.00 | 8 | 1013.8 |
| 20260905213627 | 57 | 273 | 0.0 | 1.0 | 0.00 | 0.00 | 0.00 | 8 | 1013.7 |
| 20260905213126 | 57 | 0 | 0.0 | 0.0 | 0.00 | 0.00 | 0.00 | 8 | 1013.9 |
| 20260905212626 | 57 | 329 | 1.0 | 3.0 | 0.00 | 0.00 | 0.00 | 8 | 1013.6 |
| 20260905212126 | 58 | 0 | 0.0 | 0.0 | 0.00 | 0.00 | 0.00 | 8 | 1013.6 |
| 20260905211626 | 58 | 10 | 1.0 | 2.0 | 0.00 | 0.00 | 0.00 | 8 | 1013.6 |
| 20260905211125 | 58 | 30 | 0.0 | 1.0 | 0.00 | 0.00 | 0.00 | 8 | 1013.6 |
| 20260905210625 | 58 | 354 | 1.0 | 1.0 | 0.00 | 0.00 | 0.00 | 8 | 1013.4 |
| 20260905210125 | 58 | 0 | 0.0 | 0.0 | 0.00 | 0.00 | 0.00 | 8 | 1013.5 |
| 20260905205624 | 58 | 293 | 0.0 | 1.0 | 0.00 | 0.00 | 0.00 | 7 | 1013.4 |
| 20260905205124 | 58 | 0 | 0.0 | 0.0 | 0.00 | 0.00 | 0.00 | 7 | 1013.5 |
| 20260905204624 | 58 | 0 | 0.0 | 0.0 | 0.00 | 0.00 | 0.00 | 7 | 1013.2 |
| 20260905204123 | 58 | 0 | 0.0 | 0.0 | 0.00 | 0.00 | 0.00 | 7 | 1013.4 |
| 20260905203623 | 59 | 308 | 1.0 | 2.0 | 0.00 | 0.00 | 0.00 | 7 | 1013.4 |
| 20260905203123 | 59 | 336 | 1.0 | 1.0 | 0.00 | 0.00 | 0.00 | 7 | 1013.1 |
| 20260905202622 | 59 | 0 | 0.0 | 0.0 | 0.00 | 0.00 | 0.00 | 7 | 1013.1 |
| 20260905202122 | 59 | 0 | 0.0 | 0.0 | 0.00 | 0.00 | 0.00 | 7 | 1013.2 |
| 20260905201621 | 59 | 359 | 0.0 | 1.0 | 0.00 | 0.00 | 0.00 | 7 | 1013.4 |
| 20260905201121 | 59 | 354 | 0.0 | 1.0 | 0.00 | 0.00 | 0.00 | 7 | 1013.2 |
| 20260905200621 | 59 | 0 | 0.0 | 0.0 | 0.00 | 0.01 | 0.00 | 7 | 1013.1 |
| 20260905200121 | 59 | 340 | 0.0 | 1.0 | 0.00 | 0.02 | 0.00 | 7 | 1012.9 |
| 20260905195620 | 59 | 302 | 0.0 | 1.0 | 0.00 | 0.02 | 0.00 | 7 | 1013.2 |
| 20260905195120 | 60 | 291 | 1.0 | 2.0 | 0.00 | 0.02 | 0.00 | 7 | 1013.1 |
| 20260905194619 | 60 | 357 | 0.0 | 1.0 | 0.00 | 0.05 | 0.00 | 7 | 1013.0 |
| 20260905194119 | 60 | 335 | 0.0 | 1.0 | 0.00 | 0.07 | 0.00 | 7 | 1012.9 |
| 20260905193619 | 60 | 352 | 0.0 | 1.0 | 0.00 | 0.09 | 0.00 | 7 | 1012.9 |
| 20260905193118 | 60 | 0 | 0.0 | 0.0 | 0.00 | 0.09 | 0.00 | 7 | 1013.0 |
| 20260905192618 | 60 | 0 | 0.0 | 0.0 | 0.00 | 0.10 | 0.00 | 7 | 1013.2 |
| 20260905192118 | 60 | 347 | 0.0 | 1.0 | 0.00 | 0.11 | 0.00 | 7 | 1013.0 |
| 20260905191618 | 60 | 260 | 1.0 | 2.0 | 0.00 | 0.11 | 0.00 | 7 | 1012.7 |
| 20260905191117 | 60 | 0 | 0.0 | 0.0 | 0.00 | 0.11 | 0.00 | 8 | 1013.0 |
| 20260905190617 | 60 | 0 | 0.0 | 0.0 | 0.00 | 0.11 | 0.00 | 8 | 1013.2 |
| 20260905190117 | 59 | 199 | 0.0 | 1.0 | 0.00 | 0.11 | 0.00 | 8 | 1012.8 |
| 20260905185616 | 59 | 0 | 0.0 | 0.0 | 0.00 | 0.11 | 0.00 | 8 | 1013.0 |
| 20260905185116 | 60 | 258 | 0.0 | 1.0 | 0.00 | 0.11 | 0.00 | 8 | 1013.2 |
| 20260905184616 | 60 | 273 | 0.0 | 1.0 | 0.00 | 0.11 | 0.00 | 7 | 1012.9 |
| 20260905184115 | 60 | 252 | 0.0 | 1.0 | 0.00 | 0.11 | 0.00 | 7 | 1012.9 |
| 20260905183615 | 61 | 226 | 0.0 | 1.0 | 0.00 | 0.11 | 0.00 | 7 | 1013.1 |
| 20260905183115 | 61 | 261 | 0.0 | 1.0 | 0.00 | 0.11 | 0.00 | 7 | 1013.2 |
| 20260905182614 | 61 | 1 | 0.0 | 1.0 | 0.00 | 0.11 | 0.00 | 7 | 1013.1 |
| 20260905182114 | 62 | 323 | 0.0 | 1.0 | 0.00 | 0.11 | 0.00 | 7 | 1013.4 |
| 20260905181614 | 62 | 0 | 0.0 | 0.0 | 0.00 | 0.11 | 0.00 | 7 | 1013.3 |
| 20260905181113 | 62 | 11 | 0.0 | 1.0 | 0.00 | 0.11 | 0.00 | 7 | 1013.3 |
| 20260905180613 | 62 | 0 | 0.0 | 0.0 | 0.00 | 0.11 | 0.00 | 7 | 1013.1 |
| 20260905180113 | 62 | 355 | 0.0 | 1.0 | 0.00 | 0.11 | 0.00 | 7 | 1012.8 |
| 20260905175612 | 62 | 268 | 0.0 | 1.0 | 0.00 | 0.11 | 0.00 | 7 | 1012.8 |
| 20260905175112 | 62 | 0 | 0.0 | 0.0 | 0.00 | 0.11 | 0.00 | 7 | 1013.0 |
| 20260905174612 | 62 | 356 | 0.0 | 1.0 | 0.00 | 0.11 | 0.00 | 7 | 1012.9 |
| 20260905174111 | 62 | 354 | 0.0 | 1.0 | 0.00 | 0.11 | 0.00 | 7 | 1012.9 |
| 20260905173611 | 62 | 205 | 0.0 | 1.0 | 0.00 | 0.11 | 0.00 | 7 | 1012.7 |
| 20260905173111 | 62 | 353 | 1.0 | 2.0 | 0.00 | 0.11 | 0.00 | 7 | 1012.8 |
| 20260905172610 | 62 | 0 | 0.0 | 0.0 | 0.00 | 0.11 | 0.00 | 7 | 1012.8 |
| 20260905172110 | 62 | 0 | 0.0 | 0.0 | 0.00 | 0.11 | 0.00 | 7 | 1012.9 |
| 20260905171610 | 62 | 255 | 1.0 | 2.0 | 0.00 | 0.11 | 0.00 | 7 | 1013.0 |
| 20260905171109 | 62 | 356 | 0.0 | 1.0 | 0.00 | 0.11 | 0.00 | 7 | 1012.9 |
| 20260905170609 | 62 | 313 | 0.0 | 1.0 | 0.00 | 0.11 | 0.00 | 7 | 1013.0 |
| 20260905170108 | 62 | 356 | 1.0 | 2.0 | 0.00 | 0.11 | 0.00 | 6 | 1012.7 |
| 20260905165608 | 63 | 0 | 0.0 | 0.0 | 0.00 | 0.11 | 0.00 | 6 | 1012.8 |
| 20260905165108 | 63 | 355 | 0.0 | 1.0 | 0.00 | 0.11 | 0.00 | 6 | 1012.7 |
| 20260905164608 | 63 | 0 | 0.0 | 0.0 | 0.00 | 0.11 | 0.00 | 6 | 1013.0 |
| 20260905164107 | 63 | 343 | 1.0 | 2.0 | 0.00 | 0.11 | 0.00 | 6 | 1012.9 |
| 20260905163607 | 63 | 329 | 1.0 | 2.0 | 0.00 | 0.11 | 0.00 | 6 | 1012.7 |
| 20260905163106 | 63 | 238 | 0.0 | 1.0 | 0.00 | 0.11 | 0.00 | 6 | 1012.6 |
| 20260905162606 | 63 | 352 | 0.0 | 1.0 | 0.00 | 0.11 | 0.00 | 6 | 1012.4 |
| 20260905162106 | 63 | 333 | 1.0 | 2.0 | 0.00 | 0.11 | 0.00 | 6 | 1012.5 |
| 20260905161606 | 63 | 261 | 0.0 | 2.0 | 0.00 | 0.11 | 0.00 | 6 | 1012.4 |
| 20260905161105 | 63 | 357 | 0.0 | 1.0 | 0.00 | 0.11 | 0.00 | 6 | 1012.4 |
| 20260905160605 | 63 | 17 | 1.0 | 2.0 | 0.00 | 0.11 | 0.00 | 6 | 1012.4 |
| 20260905160105 | 63 | 0 | 0.0 | 0.0 | 0.00 | 0.11 | 0.00 | 6 | 1012.1 |
| 20260905155604 | 63 | 0 | 0.0 | 0.0 | 0.00 | 0.11 | 0.00 | 6 | 1012.1 |
| 20260905155104 | 63 | 337 | 1.0 | 2.0 | 0.00 | 0.11 | 0.00 | 6 | 1012.2 |
| 20260905154604 | 63 | 230 | 1.0 | 2.0 | 0.00 | 0.11 | 0.00 | 6 | 1012.2 |
| 20260905154103 | 63 | 18 | 1.0 | 1.0 | 0.00 | 0.11 | 0.00 | 6 | 1012.3 |
| 20260905153603 | 63 | 337 | 0.0 | 1.0 | 0.00 | 0.11 | 0.00 | 6 | 1012.5 |
| 20260905153102 | 64 | 222 | 2.0 | 2.0 | 0.00 | 0.11 | 0.00 | 6 | 1012.6 |
| 20260905152602 | 64 | 95 | 4.0 | 9.0 | 0.00 | 0.11 | 0.00 | 6 | 1012.5 |
| 20260905152102 | 65 | 14 | 0.0 | 1.0 | 0.00 | 0.11 | 0.00 | 6 | 1012.3 |
| 20260905151602 | 65 | 33 | 1.0 | 2.0 | 0.00 | 0.11 | 0.00 | 6 | 1012.2 |
| 20260905151101 | 65 | 328 | 1.0 | 2.0 | 0.00 | 0.11 | 0.00 | 5 | 1012.2 |
| 20260905150601 | 66 | 218 | 2.0 | 2.0 | 0.00 | 0.11 | 0.00 | 5 | 1012.1 |
| 20260905150100 | 66 | 246 | 2.0 | 3.0 | 0.00 | 0.11 | 0.00 | 5 | 1012.1 |
| 20260905145600 | 66 | 342 | 0.0 | 1.0 | 0.00 | 0.11 | 0.00 | 6 | 1012.1 |
| 20260905145100 | 66 | 332 | 2.0 | 4.0 | 0.00 | 0.11 | 0.00 | 5 | 1011.9 |
| 20260905144559 | 66 | 322 | 0.0 | 1.0 | 0.00 | 0.11 | 0.00 | 5 | 1012.0 |
| 20260905144059 | 66 | 3 | 1.0 | 2.0 | 0.00 | 0.11 | 0.00 | 5 | 1011.9 |
| 20260905143559 | 67 | 323 | 0.0 | 1.0 | 0.00 | 0.11 | 0.00 | 5 | 1011.5 |
| 20260905143058 | 67 | 2 | 0.0 | 1.0 | 0.00 | 0.11 | 0.00 | 5 | 1011.5 |
| 20260905142558 | 67 | 338 | 1.0 | 2.0 | 0.00 | 0.11 | 0.00 | 5 | 1011.5 |
| 20260905142058 | 67 | 318 | 0.0 | 1.0 | 0.00 | 0.11 | 0.00 | 5 | 1011.3 |
| 20260905141558 | 67 | 249 | 2.0 | 2.0 | 0.00 | 0.11 | 0.00 | 5 | 1011.5 |
| 20260905141057 | 68 | 266 | 2.0 | 2.0 | 0.00 | 0.11 | 0.00 | 5 | 1011.5 |
| 20260905140557 | 67 | 212 | 0.0 | 1.0 | 0.00 | 0.11 | 0.00 | 5 | 1011.2 |
| 20260905140057 | 68 | 12 | 1.0 | 2.0 | 0.00 | 0.11 | 0.00 | 5 | 1011.5 |
| 20260905135556 | 68 | 96 | 1.0 | 3.0 | 0.00 | 0.11 | 0.00 | 5 | 1011.3 |
| 20260905135056 | 69 | 17 | 1.0 | 2.0 | 0.00 | 0.11 | 0.00 | 5 | 1011.0 |
| 20260905134556 | 68 | 0 | 0.0 | 0.0 | 0.00 | 0.11 | 0.00 | 5 | 1011.1 |
| 20260905134055 | 68 | 5 | 0.0 | 1.0 | 0.00 | 0.11 | 0.00 | 5 | 1011.2 |
| 20260905133555 | 67 | 26 | 0.0 | 1.0 | 0.00 | 0.11 | 0.00 | 5 | 1011.2 |
| 20260905133055 | 67 | 0 | 0.0 | 0.0 | 0.00 | 0.11 | 0.00 | 5 | 1011.1 |
| 20260905132554 | 67 | 5 | 0.0 | 2.0 | 0.00 | 0.11 | 0.00 | 5 | 1011.3 |
| 20260905132054 | 67 | 237 | 0.0 | 2.0 | 0.00 | 0.11 | 0.00 | 5 | 1011.3 |
| 20260905131553 | 67 | 0 | 0.0 | 0.0 | 0.00 | 0.11 | 0.00 | 5 | 1011.4 |
| 20260905131053 | 67 | 357 | 0.0 | 1.0 | 0.00 | 0.11 | 0.00 | 5 | 1011.6 |
| 20260905130553 | 68 | 13 | 2.0 | 3.0 | 0.00 | 0.11 | 0.00 | 5 | 1011.6 |
| 20260905130053 | 68 | 7 | 1.0 | 2.0 | 0.00 | 0.11 | 0.00 | 5 | 1011.2 |
| 20260905125552 | 68 | 358 | 0.0 | 1.0 | 0.00 | 0.11 | 0.00 | 5 | 1011.1 |
| 20260905125052 | 68 | 10 | 1.0 | 1.0 | 0.00 | 0.11 | 0.00 | 5 | 1011.1 |
| 20260905124552 | 68 | 345 | 2.0 | 2.0 | 0.00 | 0.11 | 0.00 | 5 | 1011.2 |
| 20260905124051 | 68 | 7 | 2.0 | 2.0 | 0.00 | 0.11 | 0.00 | 5 | 1011.1 |
| 20260905123551 | 68 | 0 | 0.0 | 0.0 | 0.00 | 0.11 | 0.00 | 5 | 1011.3 |
| 20260905123051 | 68 | 357 | 1.0 | 2.0 | 0.00 | 0.11 | 0.00 | 5 | 1011.2 |
| 20260905122550 | 70 | 141 | 1.0 | 2.0 | 0.00 | 0.11 | 0.00 | 5 | 1011.1 |
| 20260905122050 | 69 | 325 | 0.0 | 1.0 | 0.00 | 0.11 | 0.00 | 5 | 1011.2 |
| 20260905121550 | 69 | 354 | 1.0 | 1.0 | 0.00 | 0.11 | 0.00 | 5 | 1011.3 |
| 20260905121049 | 69 | 7 | 0.0 | 1.0 | 0.00 | 0.11 | 0.00 | 5 | 1011.2 |
| 20260905120549 | 69 | 333 | 1.0 | 3.0 | 0.00 | 0.11 | 0.00 | 5 | 1011.6 |
| 20260905120049 | 69 | 261 | 1.0 | 2.0 | 0.00 | 0.11 | 0.00 | 5 | 1010.9 |
| 20260905115548 | 69 | 329 | 1.0 | 3.0 | 0.00 | 0.11 | 0.00 | 5 | 1011.3 |
| 20260905115048 | 69 | 185 | 3.0 | 5.0 | 0.00 | 0.11 | 0.00 | 5 | 1011.4 |
| 20260905114548 | 68 | 336 | 2.0 | 4.0 | 0.00 | 0.11 | 0.00 | 5 | 1011.5 |
| 20260905114047 | 68 | 274 | 1.0 | 2.0 | 0.00 | 0.11 | 0.00 | 5 | 1011.4 |
| 20260905113547 | 68 | 187 | 2.0 | 3.0 | 0.00 | 0.11 | 0.00 | 5 | 1011.4 |
| 20260905113047 | 69 | 219 | 2.0 | 3.0 | 0.00 | 0.11 | 0.00 | 5 | 1011.0 |
| 20260905112546 | 70 | 85 | 4.0 | 8.0 | 0.00 | 0.11 | 0.00 | 5 | 1010.8 |
| 20260905112046 | 69 | 261 | 1.0 | 2.0 | 0.00 | 0.11 | 0.00 | 5 | 1010.8 |
| 20260905111546 | 68 | 214 | 1.0 | 3.0 | 0.00 | 0.11 | 0.00 | 5 | 1011.0 |
| 20260905111045 | 68 | 301 | 1.0 | 3.0 | 0.00 | 0.11 | 0.00 | 5 | 1011.0 |
| 20260905110545 | 69 | 5 | 0.0 | 2.0 | 0.00 | 0.11 | 0.00 | 5 | 1010.7 |
| 20260905110045 | 69 | 288 | 0.0 | 1.0 | 0.00 | 0.11 | 0.00 | 5 | 1010.8 |
| 20260905105544 | 68 | 342 | 0.0 | 1.0 | 0.00 | 0.11 | 0.00 | 5 | 1010.8 |
| 20260905105044 | 68 | 9 | 0.0 | 1.0 | 0.00 | 0.11 | 0.00 | 5 | 1010.8 |
| 20260905104544 | 68 | 352 | 1.0 | 1.0 | 0.00 | 0.11 | 0.00 | 5 | 1010.6 |
| 20260905104043 | 68 | 287 | 0.0 | 2.0 | 0.00 | 0.11 | 0.00 | 6 | 1011.1 |
| 20260905103543 | 68 | 335 | 2.0 | 4.0 | 0.00 | 0.11 | 0.00 | 6 | 1010.6 |
| 20260905103043 | 67 | 0 | 0.0 | 0.0 | 0.00 | 0.11 | 0.00 | 6 | 1010.9 |
| 20260905102542 | 67 | 220 | 2.0 | 2.0 | 0.00 | 0.11 | 0.00 | 6 | 1010.7 |
| 20260905102042 | 66 | 341 | 1.0 | 2.0 | 0.00 | 0.11 | 0.00 | 6 | 1010.5 |
| 20260905101542 | 66 | 3 | 0.0 | 1.0 | 0.00 | 0.11 | 0.00 | 6 | 1010.9 |
| 20260905101041 | 65 | 312 | 0.0 | 1.0 | 0.00 | 0.11 | 0.00 | 6 | 1011.0 |
| 20260905100541 | 65 | 287 | 0.0 | 1.0 | 0.00 | 0.11 | 0.00 | 6 | 1010.7 |
| 20260905100041 | 65 | 57 | 0.0 | 1.0 | 0.00 | 0.11 | 0.00 | 6 | 1010.7 |
| 20260905095540 | 65 | 0 | 0.0 | 0.0 | 0.00 | 0.11 | 0.00 | 6 | 1010.6 |
| 20260905095040 | 64 | 0 | 0.0 | 0.0 | 0.00 | 0.11 | 0.00 | 6 | 1010.6 |
| 20260905094540 | 65 | 231 | 2.0 | 3.0 | 0.00 | 0.11 | 0.00 | 6 | 1010.7 |
| 20260905094039 | 65 | 8 | 0.0 | 1.0 | 0.00 | 0.11 | 0.00 | 6 | 1010.5 |
| 20260905093539 | 66 | 11 | 0.0 | 1.0 | 0.00 | 0.11 | 0.00 | 6 | 1010.6 |
| 20260905093039 | 67 | 338 | 0.0 | 1.0 | 0.00 | 0.11 | 0.00 | 6 | 1010.4 |
| 20260905092538 | 68 | 336 | 0.0 | 1.0 | 0.00 | 0.11 | 0.00 | 6 | 1010.5 |
| 20260905092038 | 67 | 356 | 0.0 | 1.0 | 0.00 | 0.11 | 0.00 | 6 | 1010.4 |
| 20260905091538 | 67 | 238 | 1.0 | 2.0 | 0.00 | 0.11 | 0.00 | 6 | 1010.3 |
| 20260905091037 | 67 | 329 | 1.0 | 1.0 | 0.00 | 0.11 | 0.00 | 6 | 1010.3 |
| 20260905090537 | 66 | 356 | 0.0 | 2.0 | 0.00 | 0.11 | 0.00 | 6 | 1010.3 |
| 20260905090037 | 66 | 3 | 0.0 | 1.0 | 0.00 | 0.11 | 0.00 | 6 | 1010.4 |
| 20260905085536 | 66 | 329 | 2.0 | 2.0 | 0.00 | 0.11 | 0.00 | 6 | 1010.4 |
| 20260905085036 | 66 | 185 | 1.0 | 1.0 | 0.00 | 0.11 | 0.00 | 6 | 1010.2 |
| 20260905084536 | 65 | 336 | 1.0 | 2.0 | 0.00 | 0.11 | 0.00 | 6 | 1010.1 |
| 20260905084035 | 65 | 119 | 0.0 | 1.0 | 0.00 | 0.11 | 0.00 | 6 | 1010.1 |
| 20260905083535 | 65 | 327 | 2.0 | 4.0 | 0.00 | 0.11 | 0.00 | 7 | 1010.0 |
| 20260905083035 | 65 | 352 | 0.0 | 1.0 | 0.00 | 0.11 | 0.00 | 7 | 1010.2 |
| 20260905082534 | 65 | 271 | 1.0 | 2.0 | 0.00 | 0.11 | 0.00 | 7 | 1009.8 |
| 20260905082034 | 65 | 230 | 2.0 | 3.0 | 0.00 | 0.11 | 0.00 | 7 | 1010.1 |
| 20260905081534 | 65 | 354 | 0.0 | 2.0 | 0.00 | 0.11 | 0.00 | 7 | 1010.0 |
| 20260905081033 | 64 | 319 | 0.0 | 1.0 | 0.00 | 0.11 | 0.00 | 7 | 1010.0 |
| 20260905080533 | 64 | 328 | 1.0 | 2.0 | 0.00 | 0.11 | 0.00 | 7 | 1010.2 |
| 20260905080033 | 63 | 36 | 2.0 | 2.0 | 0.00 | 0.11 | 0.00 | 7 | 1010.1 |
| 20260905075532 | 63 | 298 | 1.0 | 2.0 | 0.00 | 0.11 | 0.00 | 7 | 1010.2 |
| 20260905075032 | 63 | 0 | 0.0 | 0.0 | 0.00 | 0.11 | 0.00 | 7 | 1010.0 |
| 20260905074532 | 63 | 346 | 0.0 | 1.0 | 0.00 | 0.11 | 0.00 | 7 | 1010.1 |
| 20260905074031 | 63 | 11 | 1.0 | 2.0 | 0.00 | 0.11 | 0.00 | 7 | 1009.9 |
| 20260905073531 | 63 | 18 | 0.0 | 1.0 | 0.00 | 0.11 | 0.00 | 7 | 1010.0 |
| 20260905073031 | 63 | 332 | 0.0 | 1.0 | 0.00 | 0.11 | 0.00 | 7 | 1009.9 |
| 20260905072530 | 63 | 0 | 0.0 | 0.0 | 0.00 | 0.11 | 0.00 | 7 | 1010.2 |
| 20260905072030 | 63 | 0 | 0.0 | 0.0 | 0.00 | 0.11 | 0.00 | 7 | 1009.8 |
| 20260905071530 | 62 | 337 | 0.0 | 1.0 | 0.00 | 0.11 | 0.00 | 7 | 1009.8 |
| 20260905071029 | 62 | 324 | 3.0 | 4.0 | 0.00 | 0.11 | 0.00 | 7 | 1009.9 |
| 20260905070529 | 62 | 284 | 0.0 | 2.0 | 0.00 | 0.11 | 0.00 | 7 | 1009.8 |
| 20260905070029 | 62 | 0 | 0.0 | 0.0 | 0.00 | 0.11 | 0.00 | 7 | 1009.7 |
| 20260905065528 | 62 | 327 | 0.0 | 1.0 | 0.00 | 0.11 | 0.00 | 7 | 1009.5 |
| 20260905065028 | 62 | 0 | 0.0 | 0.0 | 0.00 | 0.11 | 0.00 | 7 | 1009.4 |
| 20260905064528 | 62 | 4 | 0.0 | 1.0 | 0.00 | 0.11 | 0.00 | 7 | 1009.3 |
| 20260905064027 | 62 | 43 | 0.0 | 1.0 | 0.00 | 0.11 | 0.00 | 7 | 1009.2 |
| 20260905063527 | 62 | 351 | 0.0 | 1.0 | 0.00 | 0.11 | 0.00 | 7 | 1009.4 |